createdAt,value
2022-11-29T00:01:04.670Z,21.52
2022-11-29T00:03:33.185Z,21.90
2022-11-29T00:06:08.431Z,21.73
2022-11-29T00:08:36.164Z,21.48
2022-11-29T00:11:07.585Z,22.27
2022-11-29T00:13:34.441Z,21.08
2022-11-29T00:16:09.460Z,21.85
2022-11-29T00:18:36.634Z,21.63
2022-11-29T00:21:07.526Z,23.08
2022-11-29T00:23:34.922Z,22.13
2022-11-29T00:26:06.335Z,24.13
2022-11-29T00:28:34.305Z,23.40
2022-11-29T00:31:01.058Z,23.85
2022-11-29T00:33:27.651Z,23.33
2022-11-29T00:35:54.253Z,22.03
2022-11-29T00:38:20.815Z,21.20
2022-11-29T00:40:51.733Z,22.48
2022-11-29T00:43:18.406Z,24.63
2022-11-29T00:45:44.910Z,23.42
2022-11-29T00:48:11.454Z,23.77
2022-11-29T00:50:37.972Z,24.33
2022-11-29T00:53:04.519Z,24.48
2022-11-29T00:55:30.996Z,24.38
2022-11-29T00:57:58.119Z,23.80
2022-11-29T01:00:24.646Z,25.90
2022-11-29T01:02:51.178Z,26.42
2022-11-29T01:05:17.727Z,24.00
2022-11-29T01:07:44.293Z,25.90
2022-11-29T01:10:11.043Z,25.23
2022-11-29T01:12:38.517Z,25.40
2022-11-29T01:15:06.944Z,23.60
2022-11-29T01:17:37.787Z,25.85
2022-11-29T01:20:09.128Z,23.17
2022-11-29T01:22:35.997Z,22.50
2022-11-29T01:25:03.389Z,23.03
2022-11-29T01:27:30.220Z,22.98
2022-11-29T01:29:56.698Z,23.77
2022-11-29T01:32:23.233Z,22.98
2022-11-29T01:34:50.524Z,22.35
2022-11-29T01:37:17.027Z,19.83
2022-11-29T01:39:43.590Z,21.45
2022-11-29T01:42:13.959Z,19.90
2022-11-29T01:44:46.895Z,19.38
2022-11-29T01:47:13.656Z,20.98
2022-11-29T01:49:46.774Z,19.73
2022-11-29T01:52:19.513Z,21.17
2022-11-29T01:54:50.786Z,20.63
2022-11-29T01:57:18.694Z,19.92
2022-11-29T01:59:50.149Z,20.25
2022-11-29T02:02:40.011Z,20.07
2022-11-29T02:05:07.253Z,18.50
2022-11-29T02:07:34.071Z,19.85
2022-11-29T02:10:01.933Z,19.05
2022-11-29T02:12:50.666Z,19.65
2022-11-29T02:15:46.156Z,17.40
2022-11-29T02:18:22.305Z,17.63
2022-11-29T02:20:57.462Z,17.50
2022-11-29T02:23:51.230Z,17.13
2022-11-29T02:26:49.967Z,14.75
2022-11-29T02:29:31.699Z,16.17
2022-11-29T02:32:16.951Z,15.93
2022-11-29T02:35:05.237Z,16.15
2022-11-29T02:37:53.467Z,17.45
2022-11-29T02:40:33.167Z,16.40
2022-11-29T02:43:27.894Z,15.43
2022-11-29T02:46:16.416Z,15.25
2022-11-29T02:49:41.781Z,16.98
2022-11-29T02:52:15.808Z,15.32
2022-11-29T02:54:54.745Z,15.40
2022-11-29T02:57:38.292Z,17.60
2022-11-29T03:00:11.283Z,16.63
2022-11-29T03:02:49.528Z,15.38
2022-11-29T03:05:22.056Z,16.15
2022-11-29T03:07:54.023Z,16.90
2022-11-29T03:10:38.715Z,15.87
2022-11-29T03:13:15.803Z,16.52
2022-11-29T03:16:03.205Z,14.18
2022-11-29T03:18:38.710Z,16.45
2022-11-29T03:21:39.473Z,15.88
2022-11-29T03:24:13.658Z,15.63
2022-11-29T03:26:45.194Z,15.05
2022-11-29T03:29:37.937Z,18.55
2022-11-29T03:32:10.445Z,15.65
2022-11-29T03:35:02.149Z,14.75
2022-11-29T03:37:56.740Z,14.63
2022-11-29T03:40:51.230Z,16.75
2022-11-29T03:43:33.496Z,16.15
2022-11-29T03:46:07.055Z,15.05
2022-11-29T03:48:37.707Z,14.55
2022-11-29T03:51:13.938Z,14.63
2022-11-29T03:53:47.202Z,15.55
2022-11-29T03:56:35.835Z,16.20
2022-11-29T03:59:30.002Z,16.92
2022-11-29T04:02:34.303Z,15.02
2022-11-29T04:05:37.623Z,15.07
2022-11-29T04:08:12.995Z,15.05
2022-11-29T04:11:22.892Z,14.32
2022-11-29T04:14:12.423Z,12.82
2022-11-29T04:16:54.664Z,13.38
2022-11-29T04:20:00.146Z,13.13
2022-11-29T04:23:01.753Z,12.43
2022-11-29T04:25:37.087Z,11.95
2022-11-29T04:28:33.362Z,12.63
2022-11-29T04:31:08.996Z,10.90
2022-11-29T04:33:41.282Z,11.47
2022-11-29T04:36:33.971Z,11.88
2022-11-29T04:39:29.655Z,11.05
2022-11-29T04:42:26.521Z,11.95
2022-11-29T04:45:08.356Z,12.90
2022-11-29T04:47:49.139Z,13.53
2022-11-29T04:50:35.738Z,11.98
2022-11-29T04:53:11.799Z,12.73
2022-11-29T04:55:59.840Z,13.23
2022-11-29T04:59:01.677Z,13.50
2022-11-29T05:01:46.523Z,13.80
2022-11-29T05:04:26.074Z,13.73
2022-11-29T05:07:09.809Z,14.55
2022-11-29T05:09:59.756Z,13.55
2022-11-29T05:12:49.134Z,13.57
2022-11-29T05:15:45.084Z,14.33
2022-11-29T05:18:14.682Z,13.05
2022-11-29T05:20:53.525Z,12.68
2022-11-29T05:23:57.753Z,12.55
2022-11-29T05:26:33.766Z,13.82
2022-11-29T05:29:05.804Z,13.03
2022-11-29T05:31:54.215Z,12.82
2022-11-29T05:34:37.882Z,13.02
2022-11-29T05:37:21.982Z,11.90
2022-11-29T05:40:23.786Z,11.00
2022-11-29T05:43:19.402Z,13.07
2022-11-29T05:46:04.922Z,11.43
2022-11-29T05:48:52.862Z,12.20
2022-11-29T05:51:50.305Z,11.05
2022-11-29T05:54:46.952Z,10.43
2022-11-29T05:57:45.708Z,8.97
2022-11-29T06:00:18.841Z,8.48
2022-11-29T06:03:06.567Z,7.70
2022-11-29T06:05:49.876Z,8.43
2022-11-29T06:08:25.306Z,8.10
2022-11-29T06:11:32.909Z,7.93
2022-11-29T06:14:36.804Z,8.98
2022-11-29T06:17:25.853Z,8.48
2022-11-29T06:20:36.114Z,8.40
2022-11-29T06:23:05.898Z,9.27
2022-11-29T06:25:43.259Z,8.37
2022-11-29T06:28:27.298Z,8.95
2022-11-29T06:31:15.102Z,9.95
2022-11-29T06:33:56.257Z,8.75
2022-11-29T06:36:35.951Z,8.25
2022-11-29T06:39:02.806Z,9.47
2022-11-29T06:41:29.852Z,8.35
2022-11-29T06:43:56.754Z,9.18
2022-11-29T06:46:41.413Z,9.38
2022-11-29T06:49:28.481Z,9.38
2022-11-29T06:52:20.322Z,10.13
2022-11-29T06:55:09.399Z,9.65
2022-11-29T06:57:54.091Z,11.32
2022-11-29T07:00:23.603Z,9.98
2022-11-29T07:03:17.902Z,10.77
2022-11-29T07:05:46.475Z,10.60
2022-11-29T07:08:18.972Z,10.95
2022-11-29T07:10:49.966Z,11.35
2022-11-29T07:13:18.454Z,8.63
2022-11-29T07:16:07.609Z,10.05
2022-11-29T07:18:46.683Z,9.80
2022-11-29T07:22:04.682Z,10.55
2022-11-29T07:24:44.680Z,10.27
2022-11-29T07:27:17.504Z,9.57
2022-11-29T07:30:20.034Z,8.48
2022-11-29T07:33:23.165Z,9.47
2022-11-29T07:35:58.523Z,9.05
2022-11-29T07:38:48.997Z,9.18
2022-11-29T07:41:35.915Z,8.93
2022-11-29T07:44:17.061Z,7.38
2022-11-29T07:46:43.598Z,6.70
2022-11-29T07:49:11.388Z,7.90
2022-11-29T07:51:38.363Z,7.95
2022-11-29T07:54:05.871Z,7.20
2022-11-29T07:56:32.704Z,8.40
2022-11-29T07:59:00.169Z,7.97
2022-11-29T08:01:29.671Z,8.57
2022-11-29T08:03:56.242Z,7.13
2022-11-29T08:06:26.276Z,7.80
2022-11-29T08:08:52.933Z,6.95
2022-11-29T08:11:21.933Z,6.50
2022-11-29T08:13:48.548Z,6.75
2022-11-29T08:16:18.547Z,5.88
2022-11-29T08:18:45.195Z,6.30
2022-11-29T08:21:11.791Z,6.25
2022-11-29T08:23:38.485Z,5.20
2022-11-29T08:26:07.195Z,7.20
2022-11-29T08:28:33.861Z,7.13
2022-11-29T08:31:06.781Z,6.65
2022-11-29T08:33:39.159Z,6.10
2022-11-29T08:36:07.554Z,6.20
2022-11-29T08:38:34.153Z,6.50
2022-11-29T08:41:04.885Z,6.45
2022-11-29T08:43:45.293Z,5.15
2022-11-29T08:46:17.998Z,4.00
2022-11-29T08:48:46.847Z,4.97
2022-11-29T08:52:23.036Z,5.78
2022-11-29T08:54:49.532Z,4.90
2022-11-29T08:57:39.316Z,5.75
2022-11-29T09:00:06.212Z,5.47
2022-11-29T09:02:33.039Z,5.03
2022-11-29T09:05:04.739Z,6.25
2022-11-29T09:07:31.459Z,6.90
2022-11-29T09:09:57.971Z,5.70
2022-11-29T09:12:24.862Z,6.10
2022-11-29T09:14:51.387Z,6.50
2022-11-29T09:17:17.987Z,7.13
2022-11-29T09:19:45.418Z,6.18
2022-11-29T09:22:12.175Z,6.10
2022-11-29T09:24:38.723Z,6.43
2022-11-29T09:27:06.251Z,5.83
2022-11-29T09:29:33.035Z,6.32
2022-11-29T09:32:00.520Z,6.20
2022-11-29T09:34:27.138Z,6.32
2022-11-29T09:36:53.901Z,6.18
2022-11-29T09:39:23.618Z,6.03
2022-11-29T09:42:33.790Z,5.88
2022-11-29T09:45:10.725Z,5.50
2022-11-29T09:48:12.666Z,5.22
2022-11-29T09:51:09.617Z,5.43
2022-11-29T09:54:00.489Z,4.50
2022-11-29T09:56:46.526Z,5.53
2022-11-29T09:59:28.979Z,4.32
2022-11-29T10:02:21.124Z,4.22
2022-11-29T10:04:54.342Z,4.78
2022-11-29T10:07:25.076Z,4.17
2022-11-29T10:10:02.307Z,4.07
2022-11-29T10:12:38.866Z,4.88
2022-11-29T10:15:27.348Z,3.75
2022-11-29T10:18:18.448Z,4.53
2022-11-29T10:20:50.671Z,4.00
2022-11-29T10:23:45.490Z,3.22
2022-11-29T10:26:14.847Z,3.90
2022-11-29T10:28:49.475Z,4.75
2022-11-29T10:31:42.694Z,4.60
2022-11-29T10:34:14.783Z,4.97
2022-11-29T10:36:50.926Z,5.35
2022-11-29T10:39:37.145Z,5.25
2022-11-29T10:42:06.865Z,4.78
2022-11-29T10:44:33.953Z,4.85
2022-11-29T10:47:09.232Z,4.77
2022-11-29T10:49:37.826Z,4.55
2022-11-29T10:52:05.550Z,4.90
2022-11-29T10:54:39.958Z,4.35
2022-11-29T10:57:15.547Z,5.05
2022-11-29T10:59:58.092Z,4.53
2022-11-29T11:02:24.597Z,4.13
2022-11-29T11:04:51.861Z,4.13
2022-11-29T11:07:32.069Z,4.03
2022-11-29T11:09:59.695Z,4.13
2022-11-29T11:12:31.993Z,4.80
2022-11-29T11:15:37.957Z,4.47
2022-11-29T11:18:06.635Z,4.10
2022-11-29T11:20:36.559Z,5.50
2022-11-29T11:23:20.777Z,4.95
2022-11-29T11:25:50.114Z,5.17
2022-11-29T11:28:25.184Z,5.85
2022-11-29T11:30:55.936Z,5.15
2022-11-29T11:33:29.593Z,5.45
2022-11-29T11:36:04.490Z,5.25
2022-11-29T11:38:32.056Z,5.50
2022-11-29T11:41:18.648Z,5.45
2022-11-29T11:44:00.549Z,6.10
2022-11-29T11:46:47.441Z,5.88
2022-11-29T11:49:24.286Z,6.38
2022-11-29T11:51:51.039Z,5.23
2022-11-29T11:54:17.781Z,5.65
2022-11-29T11:56:44.520Z,6.05
2022-11-29T11:59:24.444Z,5.90
2022-11-29T12:01:51.411Z,6.00
2022-11-29T12:04:33.939Z,5.80
2022-11-29T12:07:14.336Z,5.45
2022-11-29T12:09:46.334Z,5.45
2022-11-29T12:12:23.509Z,6.35
2022-11-29T12:15:02.281Z,5.78
2022-11-29T12:17:39.774Z,5.73
2022-11-29T12:20:39.161Z,5.85
2022-11-29T12:23:11.860Z,5.78
2022-11-29T12:26:54.925Z,6.30
2022-11-29T12:29:16.127Z,6.13
2022-11-29T12:32:04.335Z,5.77
2022-11-29T12:35:07.077Z,5.85
2022-11-29T12:37:47.133Z,5.22
2022-11-29T12:40:22.319Z,5.93
2022-11-29T12:42:54.543Z,7.38
2022-11-29T12:45:26.160Z,6.60
2022-11-29T12:48:05.243Z,6.07
2022-11-29T12:50:51.859Z,6.13
2022-11-29T12:53:27.553Z,5.68
2022-11-29T12:56:05.037Z,6.18
2022-11-29T12:58:41.328Z,5.43
2022-11-29T13:01:37.125Z,5.55
2022-11-29T13:04:38.398Z,6.50
2022-11-29T13:08:00.461Z,6.35
2022-11-29T13:10:58.244Z,5.70
2022-11-29T13:13:48.637Z,6.35
2022-11-29T13:16:41.779Z,5.82
2022-11-29T13:26:25.743Z,5.82
2022-11-29T13:33:58.818Z,6.18
2022-11-29T13:36:38.175Z,6.67
2022-11-29T13:40:18.001Z,6.38
2022-11-29T13:59:47.387Z,5.28
2022-11-29T14:14:26.166Z,4.33
2022-11-29T14:16:58.487Z,3.90
2022-11-29T14:19:34.326Z,4.80
2022-11-29T14:22:06.883Z,5.10
2022-11-29T14:24:35.184Z,4.43
2022-11-29T14:27:12.333Z,4.57
2022-11-29T14:29:47.996Z,4.40
2022-11-29T14:32:55.634Z,4.35
2022-11-29T14:35:32.285Z,4.82
2022-11-29T14:38:06.856Z,5.15
2022-11-29T14:40:42.114Z,4.27
2022-11-29T14:43:36.916Z,4.57
2022-11-29T14:46:15.669Z,4.57
2022-11-29T14:48:47.114Z,4.45
2022-11-29T14:51:17.794Z,5.28
2022-11-29T14:53:47.270Z,5.13
2022-11-29T14:56:29.650Z,6.72
2022-11-29T14:59:44.492Z,5.78
2022-11-29T15:02:20.065Z,6.22
2022-11-29T15:04:51.090Z,5.95
2022-11-29T15:07:23.288Z,5.77
2022-11-29T15:09:53.097Z,6.35
2022-11-29T15:12:26.711Z,5.50
2022-11-29T15:15:18.739Z,6.32
2022-11-29T15:17:56.063Z,6.07
2022-11-29T15:20:34.603Z,6.63
2022-11-29T15:23:08.831Z,6.50
2022-11-29T15:25:39.034Z,6.47
2022-11-29T15:28:06.855Z,5.93
2022-11-29T15:30:37.083Z,5.93
2022-11-29T15:33:18.959Z,5.73
2022-11-29T15:35:52.314Z,5.45
2022-11-29T15:38:20.299Z,7.20
2022-11-29T15:40:53.160Z,7.88
2022-11-29T15:43:40.147Z,8.25
2022-11-29T15:46:28.309Z,8.80
2022-11-29T15:49:16.422Z,7.78
2022-11-29T15:51:46.325Z,8.18
2022-11-29T15:54:28.956Z,7.40
2022-11-29T15:57:03.250Z,8.25
2022-11-29T15:59:38.650Z,6.70
2022-11-29T16:02:24.934Z,8.75
2022-11-29T16:04:57.561Z,7.68
2022-11-29T16:07:25.916Z,7.70
2022-11-29T16:09:59.986Z,6.97
2022-11-29T16:12:27.552Z,7.43
2022-11-29T16:14:59.954Z,8.43
2022-11-29T16:17:29.703Z,8.77
2022-11-29T16:20:17.324Z,9.90
2022-11-29T16:22:44.150Z,8.48
2022-11-29T16:25:18.980Z,9.13
2022-11-29T16:27:46.253Z,8.60
2022-11-29T16:30:25.650Z,9.13
2022-11-29T16:33:00.457Z,8.07
2022-11-29T16:35:36.124Z,8.88
2022-11-29T16:38:06.247Z,8.57
2022-11-29T16:40:41.839Z,9.43
2022-11-29T16:43:45.391Z,9.35
2022-11-29T16:46:21.333Z,9.25
2022-11-29T16:48:52.627Z,9.32
2022-11-29T16:51:23.882Z,8.47
2022-11-29T16:53:53.101Z,10.05
2022-11-29T16:56:24.858Z,10.25
2022-11-29T16:59:17.169Z,9.68
2022-11-29T17:01:46.764Z,9.55
2022-11-29T17:04:23.828Z,9.17
2022-11-29T17:06:53.494Z,10.18
2022-11-29T17:09:26.059Z,10.10
2022-11-29T17:11:53.592Z,8.60
2022-11-29T17:14:20.234Z,9.85
2022-11-29T17:16:49.735Z,9.10
2022-11-29T17:19:16.697Z,9.63
2022-11-29T17:21:43.293Z,9.25
2022-11-29T17:24:12.535Z,8.73
2022-11-29T17:26:40.191Z,8.93
2022-11-29T17:29:07.319Z,9.80
2022-11-29T17:31:34.000Z,9.55
2022-11-29T17:34:01.065Z,10.63
2022-11-29T17:36:28.009Z,10.55
2022-11-29T17:38:55.832Z,9.60
2022-11-29T17:41:24.587Z,10.03
2022-11-29T17:43:53.377Z,9.90
2022-11-29T17:46:24.229Z,9.48
2022-11-29T17:48:54.387Z,9.50
2022-11-29T17:51:50.633Z,8.80
2022-11-29T17:54:11.957Z,8.77
2022-11-29T17:56:38.460Z,9.52
2022-11-29T17:59:05.885Z,9.88
2022-11-29T18:01:34.843Z,8.50
2022-11-29T18:04:02.878Z,8.98
2022-11-29T18:06:35.663Z,9.40
2022-11-29T18:09:04.415Z,9.27
2022-11-29T18:11:42.913Z,8.68
2022-11-29T18:14:15.761Z,8.13
2022-11-29T18:16:45.141Z,8.35
2022-11-29T18:19:16.339Z,7.83
2022-11-29T18:21:43.518Z,8.15
2022-11-29T18:24:14.569Z,7.88
2022-11-29T18:26:41.833Z,8.77
2022-11-29T18:29:09.283Z,8.55
2022-11-29T18:31:38.229Z,8.47
2022-11-29T18:34:09.547Z,8.32
2022-11-29T18:36:49.094Z,7.90
2022-11-29T18:39:17.804Z,7.57
2022-11-29T18:41:47.071Z,7.13
2022-11-29T18:44:15.491Z,7.67
2022-11-29T18:46:43.776Z,6.47
2022-11-29T18:49:13.580Z,6.93
2022-11-29T18:51:42.937Z,7.20
2022-11-29T18:54:09.843Z,7.03
2022-11-29T18:56:37.544Z,7.03
2022-11-29T18:59:07.917Z,6.90
2022-11-29T19:01:37.896Z,6.85
2022-11-29T19:04:04.717Z,5.88
2022-11-29T19:06:39.394Z,6.32
2022-11-29T19:09:09.646Z,6.40
2022-11-29T19:11:38.826Z,5.88
2022-11-29T19:14:11.464Z,6.22
2022-11-29T19:16:40.133Z,6.20
2022-11-29T19:19:06.896Z,5.17
2022-11-29T19:21:34.626Z,6.30
2022-11-29T19:24:07.716Z,6.25
2022-11-29T19:26:34.561Z,5.57
2022-11-29T19:29:01.751Z,7.30
2022-11-29T19:31:28.935Z,6.00
2022-11-29T19:33:57.151Z,6.15
2022-11-29T19:36:28.861Z,6.43
2022-11-29T19:38:56.074Z,5.32
2022-11-29T19:41:31.183Z,5.85
2022-11-29T19:43:59.923Z,5.63
2022-11-29T19:46:30.491Z,4.90
2022-11-29T19:48:58.866Z,5.20
2022-11-29T19:51:28.048Z,5.28
2022-11-29T19:53:56.920Z,5.18
2022-11-29T19:56:23.473Z,4.90
2022-11-29T19:58:50.755Z,5.53
2022-11-29T20:01:23.009Z,4.78
2022-11-29T20:04:03.145Z,5.18
2022-11-29T20:06:31.359Z,4.70
2022-11-29T20:09:04.318Z,5.17
2022-11-29T20:11:34.139Z,5.05
2022-11-29T20:14:15.462Z,4.47
2022-11-29T20:16:51.672Z,4.47
2022-11-29T20:19:18.566Z,4.65
2022-11-29T20:21:48.235Z,5.30
2022-11-29T20:24:17.497Z,5.25
2022-11-29T20:26:47.342Z,4.63
2022-11-29T20:29:17.510Z,4.63
2022-11-29T20:31:50.769Z,4.80
2022-11-29T20:34:19.114Z,4.40
2022-11-29T20:37:22.885Z,4.30
2022-11-29T20:39:59.814Z,4.68
2022-11-29T20:42:31.459Z,4.80
2022-11-29T20:45:04.994Z,4.97
2022-11-29T20:47:47.091Z,4.83
2022-11-29T20:50:23.259Z,4.40
2022-11-29T20:52:59.717Z,4.45
2022-11-29T20:55:27.009Z,3.92
2022-11-29T20:57:53.719Z,4.20
2022-11-29T21:00:22.686Z,4.30
2022-11-29T21:02:50.062Z,4.30
2022-11-29T21:05:16.835Z,4.47
2022-11-29T21:07:44.055Z,3.90
2022-11-29T21:10:11.771Z,3.67
2022-11-29T21:12:39.295Z,4.17
2022-11-29T21:15:07.677Z,4.22
2022-11-29T21:17:34.560Z,3.92
2022-11-29T21:20:03.910Z,4.20
2022-11-29T21:22:38.423Z,4.32
2022-11-29T21:25:38.400Z,4.03
2022-11-29T21:28:10.677Z,4.60
2022-11-29T21:30:43.015Z,4.68
2022-11-29T21:33:12.508Z,3.85
2022-11-29T21:35:40.113Z,4.45
2022-11-29T21:38:20.168Z,4.30
2022-11-29T21:40:54.413Z,6.05
2022-11-29T21:44:04.432Z,4.18
2022-11-29T21:46:17.555Z,4.13
2022-11-29T21:48:44.558Z,4.10
2022-11-29T21:51:11.943Z,4.10
2022-11-29T21:53:40.083Z,4.40
2022-11-29T21:56:09.145Z,4.95
2022-11-29T21:58:37.821Z,5.60
2022-11-29T22:01:13.905Z,4.97
2022-11-29T22:03:42.100Z,5.47
2022-11-29T22:06:11.810Z,6.80
2022-11-29T22:08:40.484Z,4.88
2022-11-29T22:11:12.835Z,4.20
2022-11-29T22:14:00.867Z,4.72
2022-11-29T22:16:28.985Z,4.20
2022-11-29T22:18:55.539Z,4.22
2022-11-29T22:21:22.424Z,4.43
2022-11-29T22:23:48.926Z,4.40
2022-11-29T22:26:15.581Z,4.30
2022-11-29T22:28:42.112Z,4.00
2022-11-29T22:31:12.072Z,3.90
2022-11-29T22:33:39.258Z,4.05
2022-11-29T22:36:11.283Z,4.32
2022-11-29T22:38:39.016Z,4.63
2022-11-29T22:41:11.560Z,4.93
2022-11-29T22:43:39.527Z,5.57
2022-11-29T22:46:16.740Z,6.57
2022-11-29T22:48:45.350Z,7.10
2022-11-29T22:51:18.114Z,7.07
2022-11-29T22:53:51.619Z,6.80
2022-11-29T22:56:18.797Z,6.90
2022-11-29T22:58:46.508Z,7.65
2022-11-29T23:01:18.812Z,7.30
2022-11-29T23:03:48.393Z,8.05
2022-11-29T23:06:18.582Z,7.67
2022-11-29T23:08:49.892Z,7.80
2022-11-29T23:11:22.981Z,7.07
2022-11-29T23:13:52.241Z,8.73
2022-11-29T23:16:25.289Z,8.77
2022-11-29T23:18:56.107Z,7.87
2022-11-29T23:21:25.541Z,8.60
2022-11-29T23:23:56.275Z,8.27
2022-11-29T23:26:45.007Z,8.98
2022-11-29T23:29:19.637Z,7.70
2022-11-29T23:31:47.523Z,8.37
2022-11-29T23:34:15.750Z,8.05
2022-11-29T23:36:49.682Z,8.70
2022-11-29T23:39:20.846Z,8.32
2022-11-29T23:41:47.338Z,8.65
2022-11-29T23:44:13.843Z,9.13
2022-11-29T23:46:40.403Z,9.02
2022-11-29T23:49:06.954Z,9.02
2022-11-29T23:51:42.190Z,9.38
2022-11-29T23:54:08.887Z,9.15
2022-11-29T23:56:36.184Z,9.53
2022-11-29T23:59:03.097Z,9.60
